Time;durP1;ratioP1;P1;durP2;ratioP2;P2;SDS_P1;SDS_P2;PMS_P1;PMS_P2;Temp;Humidity;BMP_temperature;BMP_pressure;BME280_temperature;BME280_humidity;BME280_pressure;Samples;Min_cycle;Max_cycle;Signal;HPM_P1;HPM_P2
2022/06/07 00:01:29;;;;;;;4.83;2.23;;;15.40;56.50;;;;;;5061331;28;20215;-90
2022/06/07 00:03:55;;;;;;;5.87;2.60;;;15.40;54.40;;;;;;5071532;28;20207;-93
2022/06/07 00:06:23;;;;;;;4.10;2.40;;;15.50;51.40;;;;;;5067471;28;20160;-87
2022/06/07 00:08:51;;;;;;;6.07;2.60;;;15.30;56.40;;;;;;5077250;28;20197;-86
2022/06/07 00:11:18;;;;;;;4.47;2.53;;;15.10;58.30;;;;;;5070405;28;20259;-92
2022/06/07 00:13:45;;;;;;;7.20;2.33;;;15.10;62.00;;;;;;5061287;28;20179;-91
2022/06/07 00:16:12;;;;;;;4.07;2.40;;;15.00;64.80;;;;;;5060410;28;20177;-91
2022/06/07 00:18:41;;;;;;;3.80;2.30;;;15.00;64.30;;;;;;5070378;28;20191;-88
2022/06/07 00:21:07;;;;;;;5.50;2.57;;;14.90;66.40;;;;;;5075958;28;20259;-91
2022/06/07 00:23:34;;;;;;;6.23;2.50;;;14.90;68.50;;;;;;5064079;28;20274;-90
2022/06/07 00:26:02;;;;;;;5.07;2.60;;;14.90;68.10;;;;;;5057614;28;20172;-92
2022/06/07 00:28:29;;;;;;;5.20;2.90;;;14.90;69.70;;;;;;5068401;28;20268;-90
2022/06/07 00:30:55;;;;;;;5.77;2.73;;;14.90;70.60;;;;;;5073650;28;20176;-90
2022/06/07 00:33:22;;;;;;;5.90;2.50;;;14.80;71.20;;;;;;5072911;28;20342;-89
2022/06/07 00:35:48;;;;;;;6.47;2.80;;;14.80;71.60;;;;;;5073132;28;20243;-87
2022/06/07 00:38:15;;;;;;;5.10;2.37;;;14.80;72.20;;;;;;5076835;28;20172;-88
2022/06/07 00:40:42;;;;;;;4.80;2.20;;;14.80;71.10;;;;;;5077727;28;20210;-86
2022/06/07 00:43:09;;;;;;;5.90;2.63;;;14.80;71.90;;;;;;5076034;28;20153;-88
2022/06/07 00:45:36;;;;;;;5.37;2.70;;;14.80;72.40;;;;;;5076358;28;20173;-87
2022/06/07 00:48:04;;;;;;;5.07;2.40;;;14.80;73.30;;;;;;5075941;28;20214;-88
2022/06/07 00:50:38;;;;;;;8.20;2.90;;;14.70;73.40;;;;;;5068259;28;20177;-93
2022/06/07 00:53:25;;;;;;;4.97;2.93;;;14.70;75.00;;;;;;5058441;28;20309;-93
2022/06/07 00:55:53;;;;;;;5.70;2.80;;;14.70;74.30;;;;;;5057316;28;20232;-93
2022/06/07 00:58:20;;;;;;;5.60;2.60;;;14.70;75.90;;;;;;5060905;28;20256;-93
2022/06/07 01:00:46;;;;;;;4.87;2.47;;;14.60;76.70;;;;;;5056558;28;20596;-90
2022/06/07 01:03:14;;;;;;;5.37;3.00;;;14.80;72.90;;;;;;5055629;28;20207;-93
2022/06/07 01:05:42;;;;;;;6.87;2.87;;;14.60;75.10;;;;;;5042593;28;20212;-92
2022/06/07 01:10:54;;;;;;;4.80;2.73;;;14.50;81.30;;;;;;5060982;28;20172;-92
2022/06/07 01:13:27;;;;;;;4.77;2.60;;;14.40;82.80;;;;;;5054826;28;20182;-91
2022/06/07 01:15:58;;;;;;;5.63;2.67;;;14.50;81.20;;;;;;5053986;28;20169;-91
2022/06/07 01:18:24;;;;;;;5.67;2.50;;;14.60;78.70;;;;;;5020816;28;20205;-94
2022/06/07 01:21:27;;;;;;;6.60;2.93;;;14.50;78.40;;;;;;5053273;28;20175;-92
2022/06/07 01:23:54;;;;;;;3.43;2.30;;;14.50;79.60;;;;;;5053400;28;20686;-92
2022/06/07 01:26:21;;;;;;;7.30;3.30;;;14.30;83.70;;;;;;5053478;28;20190;-92
2022/06/07 01:28:47;;;;;;;7.23;2.90;;;14.30;83.70;;;;;;5058412;28;20286;-88
2022/06/07 01:31:13;;;;;;;4.57;2.40;;;14.30;84.80;;;;;;5075247;28;20172;-89
2022/06/07 01:33:38;;;;;;;6.73;2.60;;;14.30;83.90;;;;;;5065868;28;20198;-90
2022/06/07 01:36:08;;;;;;;6.33;2.87;;;14.30;85.00;;;;;;5057926;28;20539;-91
2022/06/07 01:38:35;;;;;;;5.87;2.60;;;14.30;85.10;;;;;;5055484;28;20180;-89
2022/06/07 01:43:45;;;;;;;4.27;2.90;;;14.30;83.70;;;;;;5059251;28;20186;-85
2022/06/07 01:46:11;;;;;;;5.13;3.17;;;14.20;85.60;;;;;;5070118;28;20183;-92
2022/06/07 01:48:36;;;;;;;4.47;2.93;;;14.20;85.30;;;;;;5057117;28;20267;-92
2022/06/07 01:51:07;;;;;;;3.83;2.70;;;14.20;87.00;;;;;;5055814;28;20259;-93
2022/06/07 01:53:34;;;;;;;6.17;3.20;;;14.20;85.10;;;;;;5061672;28;20236;-88
2022/06/07 01:56:02;;;;;;;4.67;3.10;;;14.30;84.70;;;;;;5079455;28;20184;-88
2022/06/07 01:58:28;;;;;;;6.03;3.20;;;14.10;86.30;;;;;;5076577;28;20262;-92
2022/06/07 02:00:55;;;;;;;5.50;3.17;;;14.10;87.30;;;;;;5063933;28;20197;-90
2022/06/07 02:03:21;;;;;;;5.70;3.67;;;14.20;87.30;;;;;;5059342;28;20194;-89
2022/06/07 02:06:01;;;;;;;7.63;3.60;;;14.20;86.30;;;;;;5057413;28;20176;-93
2022/06/07 02:08:28;;;;;;;3.77;2.93;;;14.10;86.20;;;;;;5056901;28;20264;-93
2022/06/07 02:10:55;;;;;;;6.17;3.10;;;14.00;89.00;;;;;;5056190;28;20205;-95
2022/06/07 02:13:21;;;;;;;7.17;3.23;;;14.00;90.30;;;;;;5057378;28;20184;-91
2022/06/07 02:15:48;;;;;;;6.73;3.10;;;14.00;90.90;;;;;;5056571;28;20168;-92
2022/06/07 02:18:15;;;;;;;5.73;3.30;;;14.00;91.60;;;;;;5056839;28;20273;-93
2022/06/07 02:20:41;;;;;;;7.93;3.47;;;13.90;92.00;;;;;;5057077;28;20186;-93
2022/06/07 02:23:08;;;;;;;6.93;3.93;;;14.00;91.40;;;;;;5057333;28;20561;-93
2022/06/07 02:25:41;;;;;;;4.20;3.30;;;14.00;91.10;;;;;;5057160;28;20176;-94
2022/06/07 02:28:10;;;;;;;7.00;3.57;;;14.00;90.20;;;;;;5057034;28;20205;-93
2022/06/07 02:30:36;;;;;;;5.20;3.37;;;14.00;91.00;;;;;;5056836;28;20177;-93
2022/06/07 02:33:01;;;;;;;6.50;3.47;;;13.90;91.00;;;;;;5057110;28;20225;-93
2022/06/07 02:35:27;;;;;;;4.57;3.43;;;13.90;91.90;;;;;;5057380;28;20183;-93
2022/06/07 02:37:53;;;;;;;9.43;4.10;;;13.80;92.70;;;;;;5057360;28;20175;-93
2022/06/07 02:40:19;;;;;;;7.70;4.13;;;13.90;92.80;;;;;;5056621;28;20233;-92
2022/06/07 02:42:45;;;;;;;5.47;3.40;;;13.90;92.30;;;;;;5057511;28;20174;-93
2022/06/07 02:45:11;;;;;;;6.37;3.73;;;13.80;92.80;;;;;;5057443;28;20186;-94
2022/06/07 02:47:37;;;;;;;6.67;3.50;;;13.70;93.60;;;;;;5061200;28;20208;-91
2022/06/07 02:50:04;;;;;;;8.07;4.10;;;13.70;94.30;;;;;;5062688;28;20181;-92
2022/06/07 02:52:30;;;;;;;7.23;4.03;;;13.70;94.90;;;;;;5066636;28;20192;-92
2022/06/07 02:54:56;;;;;;;5.23;3.30;;;13.70;94.90;;;;;;5073119;28;20178;-90
2022/06/07 02:57:22;;;;;;;7.00;3.70;;;13.80;94.40;;;;;;5065690;28;20183;-91
2022/06/07 02:59:48;;;;;;;6.87;3.83;;;13.80;94.20;;;;;;5070956;28;20170;-92
2022/06/07 03:02:15;;;;;;;5.57;3.97;;;13.70;94.60;;;;;;5072120;28;20171;-93
2022/06/07 03:04:41;;;;;;;5.40;3.77;;;13.80;94.30;;;;;;5078128;28;20242;-91
2022/06/07 03:07:07;;;;;;;7.17;4.00;;;13.80;94.10;;;;;;5075441;28;20592;-92
2022/06/07 03:09:33;;;;;;;6.30;3.83;;;13.80;93.80;;;;;;5064617;28;20210;-89
2022/06/07 03:11:59;;;;;;;6.97;4.10;;;13.80;93.70;;;;;;5060302;28;20174;-94
2022/06/07 03:14:25;;;;;;;7.57;4.00;;;13.80;94.20;;;;;;5068546;28;20553;-93
2022/06/07 03:16:50;;;;;;;9.60;4.40;;;14.10;92.20;;;;;;5056194;28;20179;-93
2022/06/07 03:19:16;;;;;;;6.13;4.20;;;14.20;90.20;;;;;;5057518;28;20178;-94
2022/06/07 03:21:42;;;;;;;8.20;4.73;;;14.10;90.60;;;;;;5060312;28;20169;-91
2022/06/07 03:24:08;;;;;;;6.87;4.10;;;14.10;91.80;;;;;;5078498;28;20211;-86
2022/06/07 03:26:34;;;;;;;7.87;4.00;;;14.20;91.20;;;;;;5079147;28;20164;-86
2022/06/07 03:29:00;;;;;;;7.10;4.03;;;14.30;90.20;;;;;;5078809;28;20223;-85
2022/06/07 03:31:26;;;;;;;7.43;4.33;;;14.40;88.30;;;;;;5073836;28;20183;-93
2022/06/07 03:33:52;;;;;;;7.10;3.87;;;14.50;83.00;;;;;;5058087;28;20269;-92
2022/06/07 03:36:23;;;;;;;5.70;3.87;;;14.50;82.90;;;;;;5041153;28;20173;-90
2022/06/07 03:38:50;;;;;;;6.47;3.90;;;14.50;83.10;;;;;;5056469;28;20190;-89
2022/06/07 03:41:21;;;;;;;6.87;3.43;;;14.40;85.10;;;;;;5039328;28;20189;-92
2022/06/07 03:43:47;;;;;;;7.90;4.10;;;14.40;85.00;;;;;;5056069;28;20183;-92
2022/06/07 03:46:20;;;;;;;7.93;3.93;;;14.50;84.70;;;;;;5055312;28;20177;-91
2022/06/07 03:48:48;;;;;;;5.40;3.90;;;14.40;86.50;;;;;;5055679;28;20673;-93
2022/06/07 03:51:15;;;;;;;7.43;3.70;;;14.50;86.90;;;;;;5056467;28;20171;-92
2022/06/07 03:53:43;;;;;;;7.70;3.73;;;14.50;85.60;;;;;;5055070;28;20182;-93
2022/06/07 03:56:09;;;;;;;5.53;3.47;;;14.60;85.70;;;;;;5054639;28;20170;-94
2022/06/07 03:58:38;;;;;;;9.37;3.77;;;14.60;85.90;;;;;;5055050;28;20182;-91
2022/06/07 04:01:10;;;;;;;5.53;3.73;;;14.60;86.20;;;;;;5057460;28;20186;-95
2022/06/07 04:03:36;;;;;;;5.13;3.30;;;14.60;88.10;;;;;;5057061;28;20183;-93
2022/06/07 04:06:02;;;;;;;6.30;3.57;;;14.60;87.50;;;;;;5056814;28;20192;-94
2022/06/07 04:08:30;;;;;;;6.57;3.30;;;14.80;85.30;;;;;;5055375;28;20212;-91
2022/06/07 04:11:00;;;;;;;6.27;3.43;;;14.80;84.20;;;;;;5056740;28;20188;-94
2022/06/07 04:13:28;;;;;;;7.07;3.60;;;14.90;82.50;;;;;;5054423;28;20200;-93
2022/06/07 04:15:54;;;;;;;6.20;3.40;;;14.90;81.20;;;;;;5054489;28;20301;-94
2022/06/07 04:18:20;;;;;;;5.47;3.20;;;15.00;80.40;;;;;;5054760;28;20200;-94
2022/06/07 04:20:47;;;;;;;8.27;3.60;;;14.90;81.10;;;;;;5055464;28;20188;-93
2022/06/07 04:23:16;;;;;;;8.37;3.23;;;14.90;81.70;;;;;;5054892;28;20192;-92
2022/06/07 04:25:42;;;;;;;7.30;3.23;;;15.00;82.40;;;;;;5060264;28;20179;-92
2022/06/07 04:28:08;;;;;;;8.33;3.90;;;15.00;83.60;;;;;;5070874;28;20238;-90
2022/06/07 04:30:36;;;;;;;6.80;3.17;;;15.00;85.30;;;;;;5075317;28;20180;-92
2022/06/07 04:33:02;;;;;;;5.87;2.87;;;15.00;85.60;;;;;;5061040;28;20192;-93
2022/06/07 04:35:31;;;;;;;5.53;2.90;;;15.10;84.20;;;;;;5055141;28;20633;-94
2022/06/07 04:37:57;;;;;;;4.67;2.60;;;15.10;83.30;;;;;;5054910;28;20655;-93
2022/06/07 04:40:23;;;;;;;6.93;2.90;;;15.10;83.90;;;;;;5056387;28;20168;-94
2022/06/07 04:42:49;;;;;;;7.83;3.10;;;15.20;83.30;;;;;;5056832;28;20563;-93
2022/06/07 04:45:15;;;;;;;8.67;2.90;;;15.30;78.40;;;;;;5053116;28;20177;-93
2022/06/07 04:47:42;;;;;;;4.03;2.77;;;15.30;79.60;;;;;;5054057;28;20287;-93
2022/06/07 04:50:11;;;;;;;8.50;2.87;;;15.40;76.90;;;;;;5054875;28;20229;-93
2022/06/07 04:52:38;;;;;;;9.57;3.10;;;15.40;76.60;;;;;;5055231;28;20169;-94
2022/06/07 04:55:05;;;;;;;5.27;2.70;;;15.60;71.70;;;;;;5075322;28;20181;-89
2022/06/07 04:57:31;;;;;;;5.17;2.47;;;15.50;68.30;;;;;;5076525;28;20173;-88
2022/06/07 04:59:57;;;;;;;5.93;2.87;;;15.60;67.20;;;;;;5069039;28;20573;-93
2022/06/07 05:02:23;;;;;;;5.63;2.47;;;15.80;61.70;;;;;;5070862;28;20200;-91
2022/06/07 05:04:49;;;;;;;5.63;2.80;;;15.90;58.80;;;;;;5073378;28;20181;-90
2022/06/07 05:07:15;;;;;;;6.33;2.87;;;15.80;57.90;;;;;;5071809;28;20206;-90
2022/06/07 05:09:41;;;;;;;7.43;2.67;;;15.90;56.70;;;;;;5068799;28;20185;-93
2022/06/07 05:12:08;;;;;;;5.03;2.57;;;15.90;55.30;;;;;;5061180;28;20185;-95
2022/06/07 05:14:36;;;;;;;5.13;2.53;;;15.90;54.40;;;;;;5056151;28;20183;-94
2022/06/07 05:17:02;;;;;;;6.13;2.60;;;16.00;54.20;;;;;;5038056;28;20176;-93
2022/06/07 05:19:31;;;;;;;7.90;2.63;;;16.00;51.30;;;;;;5055159;28;20267;-93
2022/06/07 05:21:57;;;;;;;6.83;2.90;;;16.00;53.50;;;;;;5055626;28;20176;-94
2022/06/07 05:24:23;;;;;;;4.23;2.33;;;16.00;53.20;;;;;;5055107;28;20287;-88
2022/06/07 05:26:51;;;;;;;5.83;2.50;;;16.10;50.30;;;;;;5064881;28;20232;-88
2022/06/07 05:29:50;;;;;;;7.67;2.20;;;16.10;49.60;;;;;;5067975;28;20208;-91
2022/06/07 05:32:17;;;;;;;4.60;2.47;;;16.00;51.00;;;;;;5059298;28;20284;-93
2022/06/07 05:34:44;;;;;;;6.63;2.90;;;16.00;52.80;;;;;;5077621;28;20169;-91
2022/06/07 05:37:16;;;;;;;4.80;2.37;;;16.10;52.50;;;;;;5059796;28;20215;-90
2022/06/07 05:39:42;;;;;;;6.70;2.53;;;16.10;50.60;;;;;;5067826;28;20738;-90
2022/06/07 05:42:11;;;;;;;6.47;2.50;;;16.00;50.10;;;;;;5043470;28;20211;-94
2022/06/07 05:44:37;;;;;;;6.50;2.50;;;16.10;51.70;;;;;;5063987;28;20179;-88
2022/06/07 05:47:07;;;;;;;4.33;2.33;;;16.20;51.20;;;;;;5077344;28;20191;-90
2022/06/07 05:49:33;;;;;;;7.50;2.63;;;16.30;48.10;;;;;;5088176;28;20176;-90
2022/06/07 05:52:02;;;;;;;5.80;2.30;;;16.50;45.80;;;;;;5092131;28;20176;-92
2022/06/07 05:54:31;;;;;;;5.10;2.30;;;16.50;39.10;;;;;;5088990;28;20169;-90
2022/06/07 05:57:01;;;;;;;6.60;2.97;;;16.50;34.10;;;;;;5078128;28;20163;-92
2022/06/07 05:59:28;;;;;;;3.73;2.37;;;16.50;38.00;;;;;;5071427;28;20178;-90
2022/06/07 06:01:58;;;;;;;6.53;2.60;;;16.50;40.00;;;;;;5078260;28;20180;-91
2022/06/07 06:04:25;;;;;;;9.33;2.70;;;16.60;39.40;;;;;;5071625;28;20600;-95
2022/06/07 06:06:53;;;;;;;6.97;2.63;;;16.80;35.00;;;;;;5084001;28;20307;-90
2022/06/07 06:12:16;;;;;;;5.90;2.53;;;16.90;25.00;;;;;;5072707;28;20251;-87
2022/06/07 06:14:51;;;;;;;4.90;2.47;;;17.00;23.80;;;;;;5081898;28;20184;-88
2022/06/07 06:17:17;;;;;;;7.13;2.40;;;17.10;27.60;;;;;;5077664;28;20194;-88
2022/06/07 06:19:46;;;;;;;6.37;2.60;;;17.00;28.90;;;;;;5051252;28;20180;-86
2022/06/07 06:22:58;;;;;;;6.00;2.20;;;16.90;28.30;;;;;;5073309;28;20184;-86
2022/06/07 06:25:45;;;;;;;5.13;2.27;;;17.00;25.00;;;;;;5078531;28;20188;-88
2022/06/07 06:28:14;;;;;;;7.60;1.93;;;16.90;22.70;;;;;;5067433;28;20192;-94
2022/06/07 06:30:58;;;;;;;7.07;2.50;;;17.20;18.30;;;;;;5054506;28;20191;-86
2022/06/07 06:33:39;;;;;;;6.37;2.50;;;17.20;21.20;;;;;;5070426;28;20205;-86
2022/06/07 06:36:12;;;;;;;5.00;2.37;;;17.20;23.70;;;;;;5070145;28;20283;-87
2022/06/07 06:38:46;;;;;;;4.03;2.10;;;17.50;18.10;;;;;;5072027;28;20187;-86
2022/06/07 06:42:06;;;;;;;4.53;1.80;;;17.50;13.80;;;;;;5071073;28;20203;-87
2022/06/07 06:44:39;;;;;;;3.20;1.53;;;17.40;11.40;;;;;;5061502;28;20185;-86
2022/06/07 06:47:37;;;;;;;4.30;2.03;;;17.40;9.30;;;;;;5076387;28;20168;-86
2022/06/07 06:50:15;;;;;;;4.67;2.13;;;17.60;9.20;;;;;;5074203;28;20206;-86
2022/06/07 06:53:03;;;;;;;8.13;2.10;;;17.60;9.60;;;;;;5060188;28;20210;-86
2022/06/07 06:55:49;;;;;;;5.13;2.00;;;17.70;11.00;;;;;;5074509;28;20173;-86
2022/06/07 06:58:15;;;;;;;6.07;2.03;;;17.70;13.20;;;;;;5074494;28;20231;-86
2022/06/07 07:01:11;;;;;;;4.47;2.10;;;17.70;15.90;;;;;;5072925;28;20193;-86
2022/06/07 07:03:41;;;;;;;7.53;1.90;;;17.80;12.90;;;;;;5076392;28;20170;-85
2022/06/07 07:06:28;;;;;;;2.47;1.80;;;17.80;17.40;;;;;;5077068;28;20188;-86
2022/06/07 07:09:11;;;;;;;6.73;2.00;;;17.90;15.60;;;;;;5086980;28;20220;-86
2022/06/07 07:11:47;;;;;;;7.10;2.13;;;17.80;18.10;;;;;;5077090;28;20248;-86
2022/06/07 07:14:33;;;;;;;3.93;2.20;;;17.80;23.10;;;;;;5075948;28;20186;-85
2022/06/07 07:17:08;;;;;;;4.83;2.50;;;17.80;21.10;;;;;;5076019;28;20241;-86
2022/06/07 07:19:39;;;;;;;5.10;2.07;;;17.90;18.80;;;;;;5055995;28;20201;-86
2022/06/07 07:22:06;;;;;;;4.83;1.90;;;18.00;17.20;;;;;;5061461;28;20181;-85
2022/06/07 07:25:14;;;;;;;2.47;1.53;;;18.10;16.30;;;;;;5077376;28;20180;-85
2022/06/07 07:27:41;;;;;;;4.40;2.03;;;18.10;16.50;;;;;;5077046;28;20229;-86
2022/06/07 07:30:29;;;;;;;3.27;1.70;;;18.20;12.10;;;;;;5076675;28;20194;-84
2022/06/07 07:33:28;;;;;;;6.30;2.07;;;18.30;14.90;;;;;;5076948;28;20204;-84
2022/06/07 07:36:22;;;;;;;3.17;1.77;;;18.50;7.70;;;;;;5078576;28;20231;-86
2022/06/07 07:39:04;;;;;;;3.63;1.77;;;18.60;3.40;;;;;;5078157;28;20178;-87
2022/06/07 07:41:37;;;;;;;5.13;1.80;;;18.50;6.20;;;;;;5078914;28;20179;-87
2022/06/07 07:44:34;;;;;;;4.70;2.00;;;18.40;7.20;;;;;;5085304;23;20169;-86
2022/06/07 07:47:27;;;;;;;4.20;1.83;;;18.50;6.70;;;;;;5037356;28;20220;-87
2022/06/07 07:49:56;;;;;;;5.80;1.93;;;18.50;9.90;;;;;;5036778;28;20202;-85
2022/06/07 07:52:25;;;;;;;5.33;1.97;;;18.40;13.70;;;;;;5037771;28;20169;-84
2022/06/07 07:54:52;;;;;;;5.93;2.13;;;18.40;15.90;;;;;;5005732;28;20203;-86
2022/06/07 07:57:18;;;;;;;4.53;2.23;;;18.70;14.30;;;;;;5020918;28;20178;-86
2022/06/07 07:59:44;;;;;;;4.37;2.40;;;18.50;18.80;;;;;;5020985;28;20181;-87
2022/06/07 08:02:20;;;;;;;7.77;2.37;;;18.50;25.30;;;;;;5020953;28;20237;-86
2022/06/07 08:04:49;;;;;;;6.53;2.20;;;18.40;24.30;;;;;;5003154;28;20541;-87
2022/06/07 08:07:17;;;;;;;4.20;2.10;;;18.60;21.80;;;;;;5002209;28;20262;-86
2022/06/07 08:09:44;;;;;;;5.73;2.17;;;18.50;24.50;;;;;;5017379;28;20647;-86
2022/06/07 08:12:10;;;;;;;6.27;2.33;;;18.40;25.10;;;;;;5018147;28;20181;-86
2022/06/07 08:14:37;;;;;;;6.30;2.90;;;18.50;23.70;;;;;;5001113;28;20318;-86
2022/06/07 08:17:07;;;;;;;6.90;2.87;;;18.30;26.40;;;;;;5006376;28;20665;-86
2022/06/07 08:19:32;;;;;;;6.57;2.73;;;18.30;30.00;;;;;;5031452;28;20255;-85
2022/06/07 08:22:04;;;;;;;5.60;2.63;;;18.30;31.60;;;;;;5032763;28;20180;-86
2022/06/07 08:24:31;;;;;;;7.13;2.57;;;18.40;32.50;;;;;;5033608;28;20279;-86
2022/06/07 08:26:59;;;;;;;7.23;3.03;;;18.40;26.60;;;;;;5032667;28;20212;-86
2022/06/07 08:29:45;;;;;;;6.13;2.93;;;18.50;27.70;;;;;;5016963;28;20186;-86
2022/06/07 08:32:15;;;;;;;4.33;2.63;;;18.60;27.80;;;;;;5032527;28;20175;-85
2022/06/07 08:37:36;;;;;;;4.80;2.60;;;18.80;30.90;;;;;;5026607;28;20170;-84
2022/06/07 08:40:33;;;;;;;3.73;2.03;;;18.60;29.80;;;;;;5016990;28;20176;-85
2022/06/07 08:43:15;;;;;;;6.70;2.40;;;18.60;27.80;;;;;;5014717;28;20181;-86
2022/06/07 08:45:43;;;;;;;6.73;2.63;;;18.70;14.50;;;;;;5013573;28;20182;-86
2022/06/07 08:48:18;;;;;;;7.43;2.83;;;18.80;16.90;;;;;;4997048;28;20233;-86
2022/06/07 08:51:22;;;;;;;5.80;2.80;;;18.80;13.60;;;;;;4997571;28;20193;-86
2022/06/07 08:54:22;;;;;;;5.50;2.90;;;18.70;19.30;;;;;;5031729;28;20251;-85
2022/06/07 08:57:39;;;;;;;5.67;2.53;;;18.60;25.30;;;;;;5034565;28;20168;-86
2022/06/07 09:00:48;;;;;;;7.23;2.77;;;18.60;24.90;;;;;;5034080;28;20175;-86
2022/06/07 09:03:55;;;;;;;5.73;2.63;;;18.50;21.90;;;;;;5032038;28;20179;-86
2022/06/07 09:06:24;;;;;;;5.43;2.57;;;18.30;29.30;;;;;;5026653;28;20184;-86
2022/06/07 09:09:12;;;;;;;6.37;3.10;;;18.20;37.90;;;;;;4993146;28;20288;-86
2022/06/07 09:15:09;;;;;;;4.37;2.97;;;18.20;45.40;;;;;;5030510;28;20189;-86
2022/06/07 09:17:47;;;;;;;5.97;3.27;;;18.20;46.70;;;;;;5013121;28;20178;-86
2022/06/07 09:20:42;;;;;;;8.10;3.00;;;18.20;49.70;;;;;;5024009;28;20171;-86
2022/06/07 09:23:43;;;;;;;6.13;2.60;;;18.00;55.70;;;;;;5033660;28;20182;-86
2022/06/07 09:26:34;;;;;;;6.40;3.70;;;18.00;55.80;;;;;;4998916;28;20186;-84
2022/06/07 09:29:21;;;;;;;7.87;4.23;;;17.80;53.20;;;;;;5018191;28;20285;-85
2022/06/07 09:31:49;;;;;;;9.23;3.10;;;17.70;59.40;;;;;;5001602;28;20164;-83
2022/06/07 09:34:46;;;;;;;6.00;3.23;;;17.60;68.20;;;;;;5020332;28;20171;-87
2022/06/07 09:37:17;;;;;;;6.50;3.40;;;17.40;73.70;;;;;;5037499;28;20163;-85
2022/06/07 09:39:44;;;;;;;6.40;3.47;;;17.50;75.80;;;;;;5020053;28;20166;-86
2022/06/07 09:42:32;;;;;;;6.80;3.30;;;17.50;76.30;;;;;;5011849;28;20212;-86
2022/06/07 09:45:19;;;;;;;5.90;3.40;;;17.60;65.40;;;;;;4997647;28;20177;-89
2022/06/07 09:47:45;;;;;;;7.53;3.87;;;17.70;66.20;;;;;;4989238;28;20200;-96
2022/06/07 09:50:13;;;;;;;9.50;5.03;;;17.80;70.40;;;;;;4989422;28;20178;-87
2022/06/07 09:52:47;;;;;;;10.10;5.93;;;17.70;75.30;;;;;;4995966;28;20175;-81
2022/06/07 09:55:16;;;;;;;13.13;9.43;;;17.80;74.90;;;;;;4998015;28;20214;-84
2022/06/07 09:57:51;;;;;;;16.93;11.10;;;17.70;72.30;;;;;;4997240;28;20173;-93
2022/06/07 10:00:32;;;;;;;14.83;11.30;;;17.70;82.10;;;;;;4997749;28;20191;-84
2022/06/07 10:03:24;;;;;;;18.03;11.67;;;17.60;92.20;;;;;;4998417;28;20175;-86
2022/06/07 10:06:27;;;;;;;13.37;9.33;;;17.50;95.00;;;;;;5019058;28;20192;-85
2022/06/07 10:09:16;;;;;;;11.53;8.53;;;17.50;96.30;;;;;;5011954;28;20227;-86
2022/06/07 10:12:13;;;;;;;14.40;7.70;;;17.50;97.40;;;;;;4997484;28;20223;-86
2022/06/07 10:15:03;;;;;;;14.30;8.57;;;17.60;96.90;;;;;;5008046;28;20240;-89
2022/06/07 10:17:55;;;;;;;11.23;8.47;;;17.60;94.80;;;;;;5000437;28;20179;-86
2022/06/07 10:20:57;;;;;;;11.90;7.50;;;17.80;93.70;;;;;;5013998;28;20166;-89
2022/06/07 10:23:45;;;;;;;11.00;7.67;;;18.00;92.60;;;;;;5011511;28;20190;-87
2022/06/07 10:26:35;;;;;;;11.50;7.60;;;18.10;90.00;;;;;;5037992;28;20167;-88
2022/06/07 10:29:57;;;;;;;14.33;8.40;;;18.00;88.50;;;;;;5023086;28;21777;-85
2022/06/07 10:32:58;;;;;;;13.13;9.60;;;18.10;78.90;;;;;;5001636;28;20328;-87
2022/06/07 10:35:45;;;;;;;9.63;7.07;;;18.10;76.20;;;;;;4974757;28;20276;-93
2022/06/07 10:38:15;;;;;;;14.27;8.43;;;18.10;71.90;;;;;;5014275;28;20187;-87
2022/06/07 10:41:18;;;;;;;12.73;8.30;;;18.10;79.50;;;;;;5017748;28;20187;-88
2022/06/07 10:44:31;;;;;;;14.83;9.43;;;18.10;77.60;;;;;;5014379;28;20239;-88
2022/06/07 10:47:11;;;;;;;13.60;8.90;;;18.00;82.80;;;;;;4951434;28;20229;-92
2022/06/07 10:49:48;;;;;;;13.27;7.80;;;18.00;91.00;;;;;;5006949;28;20210;-90
2022/06/07 10:52:55;;;;;;;6.57;4.97;;;18.10;91.20;;;;;;4992330;28;20168;-88
2022/06/07 10:55:45;;;;;;;8.70;5.30;;;18.00;80.80;;;;;;5018682;28;20168;-85
2022/06/07 10:58:58;;;;;;;8.47;5.70;;;18.10;78.70;;;;;;5019251;28;20180;-88
2022/06/07 11:02:00;;;;;;;8.57;6.47;;;17.90;84.10;;;;;;5017352;28;20157;-87
2022/06/07 11:10:38;;;;;;;9.33;6.83;;;18.00;90.90;;;;;;4991916;28;20663;-91
2022/06/07 11:13:30;;;;;;;10.17;7.57;;;18.10;93.60;;;;;;4995579;28;20228;-89
2022/06/07 11:16:09;;;;;;;8.73;6.60;;;18.20;95.20;;;;;;5009478;28;20194;-88
2022/06/07 11:18:41;;;;;;;12.17;8.57;;;18.30;92.00;;;;;;5007459;28;20162;-90
2022/06/07 11:21:13;;;;;;;13.40;9.73;;;18.50;93.60;;;;;;5010859;28;20223;-92
2022/06/07 11:23:56;;;;;;;11.40;8.37;;;18.50;92.10;;;;;;4993503;28;20538;-93
2022/06/07 11:26:24;;;;;;;12.33;8.57;;;18.70;91.70;;;;;;4994171;28;20175;-93
2022/06/07 11:28:56;;;;;;;9.53;7.83;;;18.90;91.10;;;;;;5006433;28;20222;-94
2022/06/07 11:31:40;;;;;;;10.63;8.30;;;18.90;86.10;;;;;;5012502;28;20166;-93
2022/06/07 11:34:32;;;;;;;8.20;7.20;;;18.70;75.10;;;;;;5010241;28;20244;-89
2022/06/07 11:37:19;;;;;;;7.60;6.70;;;18.70;84.20;;;;;;5016174;28;20239;-94
2022/06/07 11:39:54;;;;;;;9.27;7.20;;;18.80;83.80;;;;;;5034895;28;20201;-87
2022/06/07 11:42:37;;;;;;;9.50;6.93;;;18.80;82.30;;;;;;5025620;28;20177;-91
2022/06/07 11:45:21;;;;;;;7.83;6.80;;;18.90;73.60;;;;;;5014168;28;20261;-93
2022/06/07 11:47:47;;;;;;;8.03;7.23;;;19.00;61.40;;;;;;5000458;28;20204;-88
2022/06/07 11:50:31;;;;;;;8.83;7.10;;;19.10;63.00;;;;;;5009981;28;20186;-93
2022/06/07 11:53:38;;;;;;;7.03;6.33;;;19.10;67.00;;;;;;4994982;28;20159;-91
2022/06/07 11:56:37;;;;;;;6.97;5.87;;;19.10;65.00;;;;;;4974411;28;20195;-95
2022/06/07 11:59:23;;;;;;;8.70;6.50;;;19.10;57.50;;;;;;4963600;28;20739;-94
2022/06/07 12:02:09;;;;;;;7.47;6.60;;;19.00;68.40;;;;;;4985459;28;20175;-95
2022/06/07 12:04:43;;;;;;;9.83;8.83;;;19.00;82.00;;;;;;4991972;28;20199;-88
2022/06/07 12:07:42;;;;;;;8.17;7.37;;;19.10;78.90;;;;;;4999782;28;20246;-93
2022/06/07 12:10:16;;;;;;;8.63;7.43;;;19.10;62.80;;;;;;5015390;28;20188;-92
2022/06/07 12:12:56;;;;;;;8.87;7.43;;;19.10;68.10;;;;;;4991640;28;20217;-92
2022/06/07 12:15:39;;;;;;;8.87;7.20;;;19.30;76.20;;;;;;4983855;28;20233;-92
2022/06/07 12:18:21;;;;;;;8.63;7.60;;;19.40;62.10;;;;;;4981806;28;20233;-91
2022/06/07 12:20:54;;;;;;;10.97;8.27;;;19.40;57.20;;;;;;4981910;28;20180;-90
2022/06/07 12:23:27;;;;;;;8.93;7.70;;;19.30;61.90;;;;;;4989861;28;20226;-88
2022/06/07 12:26:02;;;;;;;9.50;7.90;;;19.40;68.80;;;;;;4991097;28;20190;-86
2022/06/07 12:28:39;;;;;;;8.70;7.80;;;19.30;61.00;;;;;;4992948;28;20216;-86
2022/06/07 12:31:22;;;;;;;8.43;7.53;;;19.40;66.50;;;;;;5001231;28;20197;-94
2022/06/07 12:34:01;;;;;;;8.73;7.93;;;19.30;77.90;;;;;;5002145;28;20331;-87
2022/06/07 12:36:35;;;;;;;8.13;7.30;;;19.40;80.50;;;;;;5015087;28;20173;-87
2022/06/07 12:39:24;;;;;;;7.63;6.50;;;19.50;74.50;;;;;;4991104;28;20192;-94
2022/06/07 12:41:55;;;;;;;9.03;6.80;;;19.60;73.30;;;;;;4963336;28;20188;-88
2022/06/07 12:44:27;;;;;;;8.03;7.00;;;19.80;70.00;;;;;;4991747;28;20186;-88
2022/06/07 12:46:55;;;;;;;7.70;6.93;;;20.10;70.40;;;;;;4984703;28;20182;-92
2022/06/07 12:49:44;;;;;;;7.77;6.57;;;20.10;50.40;;;;;;5001908;28;20316;-87
2022/06/07 12:52:17;;;;;;;8.50;7.27;;;20.30;49.90;;;;;;4987613;28;20237;-87
2022/06/07 12:55:00;;;;;;;8.17;6.90;;;20.30;49.10;;;;;;4985525;28;20166;-88
2022/06/07 12:57:37;;;;;;;8.13;7.30;;;20.40;50.40;;;;;;4986560;28;20173;-88
2022/06/07 13:00:32;;;;;;;6.93;6.23;;;20.30;45.50;;;;;;5006094;28;20200;-88
2022/06/07 13:03:05;;;;;;;7.53;6.83;;;20.20;48.90;;;;;;5003554;28;20196;-88
2022/06/07 13:05:38;;;;;;;8.03;6.90;;;20.20;51.20;;;;;;4983725;28;20185;-88
2022/06/07 13:08:38;;;;;;;7.07;6.43;;;20.00;52.70;;;;;;5007380;28;20220;-87
2022/06/07 13:11:45;;;;;;;9.10;7.57;;;20.00;53.60;;;;;;4989859;28;20265;-88
2022/06/07 13:14:14;;;;;;;9.60;6.87;;;19.70;57.60;;;;;;5002790;28;20191;-91
2022/06/07 13:16:43;;;;;;;7.20;6.53;;;19.70;63.30;;;;;;4989756;28;20195;-87
2022/06/07 13:19:12;;;;;;;7.07;6.30;;;19.50;66.60;;;;;;4985747;28;20285;-87
2022/06/07 13:21:40;;;;;;;7.83;7.00;;;19.60;67.80;;;;;;5003125;28;20215;-90
2022/06/07 13:24:21;;;;;;;7.43;6.20;;;19.60;62.60;;;;;;5000467;28;20203;-87
2022/06/07 13:26:55;;;;;;;8.33;7.00;;;19.40;66.20;;;;;;5000860;28;20178;-92
2022/06/07 13:29:33;;;;;;;7.93;7.13;;;19.30;68.80;;;;;;5015010;28;20245;-90
2022/06/07 13:32:20;;;;;;;7.17;6.47;;;19.20;73.30;;;;;;4989257;28;20271;-91
2022/06/07 13:34:55;;;;;;;8.87;7.47;;;19.20;75.00;;;;;;5008690;28;20171;-95
2022/06/07 13:37:23;;;;;;;8.20;7.30;;;19.50;75.60;;;;;;4989561;28;20179;-93
2022/06/07 13:40:24;;;;;;;8.73;6.60;;;19.50;69.60;;;;;;4973911;28;20195;-91
2022/06/07 13:43:00;;;;;;;8.70;7.40;;;19.50;66.40;;;;;;4983841;28;20194;-94
2022/06/07 13:45:30;;;;;;;8.07;7.23;;;19.60;67.40;;;;;;4986266;28;20207;-95
2022/06/07 13:48:21;;;;;;;7.53;6.83;;;19.50;65.20;;;;;;4984603;28;20203;-93